Terminal Aerodrome Forecast
Issued by NWS

Home | Current Version | Previous Version | Text Only | Print | Product List | Glossary On
Versions: 1 2 3 4 5 6 7 8 9 10 11 12 13 14 15 16 17
000
FTUS43 KICT 212000 AAA
TAFCNU
TAF AMD
KCNU 212058Z 2121/2218 26007KT P6SM BKN040
     FM212230 26004KT P6SM -SHRA BKN040CB
     FM220030 36008KT P6SM BKN060
     FM221500 04008KT P6SM SKC=

USA.gov is the U.S. government's official web portal to all federal, state and local government web resources and services.